createdAt,value
2023-05-25T00:01:49.213Z,14.68
2023-05-25T00:04:17.610Z,14.66
2023-05-25T00:06:47.885Z,14.63
2023-05-25T00:09:15.523Z,14.60
2023-05-25T00:11:43.243Z,14.57
2023-05-25T00:14:10.843Z,14.54
2023-05-25T00:16:41.040Z,14.52
2023-05-25T00:19:11.174Z,14.49
2023-05-25T00:21:38.834Z,14.49
2023-05-25T00:24:06.418Z,14.48
2023-05-25T00:26:35.069Z,14.46
2023-05-25T00:29:03.942Z,14.45
2023-05-25T00:31:35.706Z,14.44
2023-05-25T00:34:03.333Z,14.44
2023-05-25T00:36:30.787Z,14.44
2023-05-25T00:38:58.177Z,14.44
2023-05-25T00:41:26.451Z,14.44
2023-05-25T00:43:53.808Z,14.45
2023-05-25T00:46:22.554Z,14.44
2023-05-25T00:48:52.707Z,14.45
2023-05-25T00:51:20.333Z,14.45
2023-05-25T00:53:47.748Z,14.45
2023-05-25T00:56:17.077Z,14.45
2023-05-25T00:58:44.455Z,14.45
2023-05-25T01:01:12.183Z,14.44
2023-05-25T01:03:45.984Z,14.44
2023-05-25T01:06:15.051Z,14.44
2023-05-25T01:08:44.417Z,14.44
2023-05-25T01:11:11.989Z,14.44
2023-05-25T01:13:39.641Z,14.45
2023-05-25T01:16:07.644Z,14.45
2023-05-25T01:18:35.092Z,14.45
2023-05-25T01:21:31.153Z,14.44
2023-05-25T01:24:12.092Z,14.43
2023-05-25T01:26:44.709Z,14.42
2023-05-25T01:29:12.465Z,14.42
2023-05-25T01:31:39.935Z,14.41
2023-05-25T01:34:07.478Z,14.41
2023-05-25T01:36:34.925Z,14.41
2023-05-25T01:39:06.970Z,14.41
2023-05-25T01:41:34.431Z,14.41
2023-05-25T01:44:01.924Z,14.41
2023-05-25T01:46:36.977Z,14.41
2023-05-25T01:49:30.518Z,14.41
2023-05-25T01:52:24.118Z,14.41
2023-05-25T01:55:02.972Z,14.39
2023-05-25T01:57:31.186Z,14.38
2023-05-25T02:00:00.519Z,14.37
2023-05-25T02:02:27.947Z,14.37
2023-05-25T02:04:55.789Z,14.35
2023-05-25T02:07:23.472Z,14.35
2023-05-25T02:09:51.309Z,14.34
2023-05-25T02:12:18.714Z,14.35
2023-05-25T02:14:48.497Z,14.34
2023-05-25T02:17:17.881Z,14.33
2023-05-25T02:19:46.677Z,14.33
2023-05-25T02:22:14.143Z,14.31
2023-05-25T02:24:42.228Z,14.30
2023-05-25T02:27:12.922Z,14.29
2023-05-25T02:29:40.861Z,14.28
2023-05-25T02:32:08.272Z,14.28
2023-05-25T02:34:35.921Z,14.27
2023-05-25T02:37:03.562Z,14.27
2023-05-25T02:39:31.016Z,14.26
2023-05-25T02:41:58.792Z,14.25
2023-05-25T02:44:26.782Z,14.26
2023-05-25T02:46:55.600Z,14.28
2023-05-25T02:49:23.718Z,14.30
2023-05-25T02:51:51.325Z,14.31
2023-05-25T02:54:19.195Z,14.33
2023-05-25T02:56:46.751Z,14.36
2023-05-25T02:59:15.911Z,14.39
2023-05-25T03:01:43.671Z,14.46
2023-05-25T03:04:11.189Z,14.52
2023-05-25T03:06:38.820Z,14.57
2023-05-25T03:09:09.981Z,14.62
2023-05-25T03:11:38.419Z,14.66
2023-05-25T03:14:06.135Z,14.69
2023-05-25T03:16:36.579Z,14.77
2023-05-25T03:19:08.713Z,14.93
2023-05-25T03:21:38.081Z,15.12
2023-05-25T03:24:06.357Z,15.24
2023-05-25T03:26:34.641Z,15.32
2023-05-25T03:29:02.330Z,15.35
2023-05-25T03:31:30.234Z,15.40
2023-05-25T03:33:58.271Z,15.44
2023-05-25T03:36:31.057Z,15.52
2023-05-25T03:38:58.581Z,15.54
2023-05-25T03:41:27.109Z,15.51
2023-05-25T03:43:54.735Z,15.53
2023-05-25T03:46:22.245Z,15.72
2023-05-25T03:48:49.956Z,15.94
2023-05-25T03:51:17.617Z,16.07
2023-05-25T03:53:46.122Z,16.16
2023-05-25T03:56:13.744Z,16.22
2023-05-25T03:58:41.634Z,16.26
2023-05-25T04:01:10.571Z,16.31
2023-05-25T04:03:38.374Z,16.40
2023-05-25T04:06:06.195Z,16.51
2023-05-25T04:08:34.340Z,16.61
2023-05-25T04:11:02.400Z,16.81
2023-05-25T04:13:29.940Z,17.23
2023-05-25T04:15:58.399Z,17.67
2023-05-25T04:18:31.654Z,18.09
2023-05-25T04:21:04.836Z,18.41
2023-05-25T04:23:34.889Z,18.65
2023-05-25T04:26:06.169Z,18.90
2023-05-25T04:28:33.752Z,18.97
2023-05-25T04:31:13.671Z,18.83
2023-05-25T04:33:51.938Z,18.87
2023-05-25T04:36:32.871Z,18.96
2023-05-25T04:39:03.262Z,18.97
2023-05-25T04:41:31.340Z,18.89
2023-05-25T04:44:09.631Z,18.74
2023-05-25T04:46:44.739Z,18.47
2023-05-25T04:49:21.966Z,18.16
2023-05-25T04:51:49.337Z,17.90
2023-05-25T04:54:17.001Z,17.76
2023-05-25T04:56:44.861Z,17.78
2023-05-25T04:59:12.348Z,17.90
2023-05-25T05:01:42.300Z,18.02
2023-05-25T05:04:12.471Z,18.08
2023-05-25T05:06:39.883Z,18.02
2023-05-25T05:09:08.920Z,18.01
2023-05-25T05:11:36.306Z,18.04
2023-05-25T05:14:04.562Z,18.12
2023-05-25T05:16:35.207Z,18.14
2023-05-25T05:19:03.173Z,18.06
2023-05-25T05:21:30.785Z,17.99
2023-05-25T05:23:58.309Z,17.96
2023-05-25T05:26:27.785Z,17.88
2023-05-25T05:28:55.621Z,17.75
2023-05-25T05:31:24.484Z,17.64
2023-05-25T05:33:51.898Z,17.58
2023-05-25T05:36:19.394Z,17.59
2023-05-25T05:38:47.094Z,17.66
2023-05-25T05:41:14.620Z,17.76
2023-05-25T05:43:46.665Z,17.80
2023-05-25T05:46:14.104Z,17.79
2023-05-25T05:48:42.561Z,17.69
2023-05-25T05:51:10.642Z,17.59
2023-05-25T05:53:38.286Z,17.54
2023-05-25T05:56:07.185Z,17.57
2023-05-25T05:58:35.035Z,17.62
2023-05-25T06:01:04.375Z,17.62
2023-05-25T06:03:31.793Z,17.58
2023-05-25T06:05:59.316Z,17.53
2023-05-25T06:08:27.673Z,17.51
2023-05-25T06:10:56.209Z,17.50
2023-05-25T06:13:23.775Z,17.51
2023-05-25T06:15:51.974Z,17.51
2023-05-25T06:18:22.777Z,17.50
2023-05-25T06:20:50.467Z,17.55
2023-05-25T06:23:19.463Z,17.63
2023-05-25T06:25:52.447Z,17.74
2023-05-25T06:28:20.103Z,17.84
2023-05-25T06:30:49.114Z,17.91
2023-05-25T06:33:16.924Z,17.93
2023-05-25T06:35:44.599Z,17.92
2023-05-25T06:38:12.714Z,17.92
2023-05-25T06:40:40.049Z,17.92
2023-05-25T06:43:07.502Z,17.94
2023-05-25T06:45:42.463Z,17.97
2023-05-25T06:49:37.824Z,18.07
2023-05-25T06:52:06.469Z,18.11
2023-05-25T06:54:34.211Z,18.15
2023-05-25T06:57:01.634Z,18.15
2023-05-25T06:59:29.753Z,18.18
2023-05-25T07:01:59.232Z,18.26
2023-05-25T07:04:27.685Z,18.36
2023-05-25T07:06:55.194Z,18.48
2023-05-25T07:09:23.679Z,18.56
2023-05-25T07:11:52.079Z,18.65
2023-05-25T07:14:19.422Z,18.70
2023-05-25T07:16:46.822Z,18.72
2023-05-25T07:19:14.265Z,18.76
2023-05-25T07:21:41.694Z,18.83
2023-05-25T07:24:09.483Z,18.87
2023-05-25T07:26:37.194Z,18.85
2023-05-25T07:29:04.716Z,18.83
2023-05-25T07:31:32.111Z,18.85
2023-05-25T07:33:59.672Z,18.85
2023-05-25T07:36:26.981Z,18.83
2023-05-25T07:38:54.322Z,18.80
2023-05-25T07:41:21.649Z,18.78
2023-05-25T07:43:49.186Z,18.77
2023-05-25T07:46:17.385Z,18.77
2023-05-25T07:48:44.816Z,18.80
2023-05-25T07:51:12.242Z,18.84
2023-05-25T07:53:40.143Z,18.89
2023-05-25T07:56:10.462Z,18.92
2023-05-25T07:58:38.090Z,18.94
2023-05-25T08:01:05.682Z,18.98
2023-05-25T08:03:48.125Z,18.98
2023-05-25T08:06:17.358Z,18.92
2023-05-25T08:08:47.604Z,18.87
2023-05-25T08:11:15.147Z,18.87
2023-05-25T08:13:42.957Z,18.87
2023-05-25T08:16:10.286Z,18.88
2023-05-25T08:18:37.620Z,18.89
2023-05-25T08:21:05.151Z,18.93
2023-05-25T08:23:32.467Z,18.98
2023-05-25T08:26:01.213Z,18.98
2023-05-25T08:28:28.795Z,18.99
2023-05-25T08:30:58.302Z,19.01
2023-05-25T08:33:26.213Z,19.02
2023-05-25T08:35:53.855Z,19.03
2023-05-25T08:38:25.186Z,19.07
2023-05-25T08:41:06.249Z,19.13
2023-05-25T08:43:34.098Z,19.18
2023-05-25T08:46:06.460Z,19.22
2023-05-25T08:48:41.807Z,19.24
2023-05-25T08:51:11.702Z,19.27
2023-05-25T08:53:40.855Z,19.31
2023-05-25T08:56:16.867Z,19.39
2023-05-25T08:58:57.395Z,19.47
2023-05-25T09:01:26.295Z,19.55
2023-05-25T09:03:54.315Z,19.63
2023-05-25T09:06:21.652Z,19.68
2023-05-25T09:08:49.151Z,19.70
2023-05-25T09:11:17.721Z,19.74
2023-05-25T09:13:53.926Z,19.76
2023-05-25T09:16:21.376Z,19.78
2023-05-25T09:18:49.478Z,19.81
2023-05-25T09:21:16.830Z,19.86
2023-05-25T09:23:44.236Z,19.93
2023-05-25T09:26:11.673Z,19.97
2023-05-25T09:28:46.911Z,19.97
2023-05-25T09:31:17.569Z,20.00
2023-05-25T09:33:46.128Z,20.08
2023-05-25T09:36:18.147Z,20.17
2023-05-25T09:38:46.292Z,20.22
2023-05-25T09:41:14.073Z,20.26
2023-05-25T09:43:46.581Z,20.29
2023-05-25T09:46:21.995Z,20.32
2023-05-25T09:48:58.230Z,20.33
2023-05-25T09:51:37.745Z,20.39
2023-05-25T09:54:05.478Z,20.46
2023-05-25T09:56:36.162Z,20.53
2023-05-25T09:59:04.309Z,20.55
2023-05-25T10:01:32.643Z,20.57
2023-05-25T10:04:04.883Z,20.63
2023-05-25T10:06:33.614Z,20.69
2023-05-25T10:09:01.434Z,20.73
2023-05-25T10:11:28.919Z,20.78
2023-05-25T10:13:56.814Z,20.84
2023-05-25T10:16:26.325Z,20.90
2023-05-25T10:19:16.213Z,20.93
2023-05-25T10:21:47.906Z,20.95
2023-05-25T10:24:17.151Z,20.97
2023-05-25T10:26:46.416Z,20.98
2023-05-25T10:29:13.995Z,21.02
2023-05-25T10:31:41.547Z,21.07
2023-05-25T10:34:09.399Z,21.15
2023-05-25T10:36:36.801Z,21.22
2023-05-25T10:39:04.146Z,21.24
2023-05-25T10:41:31.600Z,21.26
2023-05-25T10:43:59.096Z,21.28
2023-05-25T10:46:26.452Z,21.31
2023-05-25T10:48:54.378Z,21.33
2023-05-25T10:51:21.864Z,21.35
2023-05-25T10:53:59.162Z,21.40
2023-05-25T10:56:26.672Z,21.47
2023-05-25T10:58:54.009Z,21.52
2023-05-25T11:01:21.437Z,21.55
2023-05-25T11:04:16.049Z,21.57
2023-05-25T11:06:46.775Z,21.57
2023-05-25T11:09:33.104Z,21.60
2023-05-25T11:12:02.489Z,21.65
2023-05-25T11:14:31.616Z,21.70
2023-05-25T11:17:20.838Z,21.78
2023-05-25T11:19:56.450Z,21.86
2023-05-25T11:22:35.509Z,21.88
2023-05-25T11:25:04.224Z,21.91
2023-05-25T11:27:31.873Z,21.92
2023-05-25T11:29:59.672Z,21.94
2023-05-25T11:32:28.366Z,21.98
2023-05-25T11:34:57.390Z,22.01
2023-05-25T11:37:26.616Z,22.02
2023-05-25T11:39:54.099Z,22.05
2023-05-25T11:42:22.839Z,22.08
2023-05-25T11:44:50.456Z,22.11
2023-05-25T11:47:22.890Z,22.14
2023-05-25T11:49:50.767Z,22.17
2023-05-25T11:52:19.059Z,22.21
2023-05-25T11:54:46.579Z,22.24
2023-05-25T11:57:18.155Z,22.28
2023-05-25T11:59:50.314Z,22.32
2023-05-25T12:02:17.773Z,22.38
2023-05-25T12:04:59.408Z,22.43
2023-05-25T12:07:27.324Z,22.47
2023-05-25T12:10:07.951Z,22.49
2023-05-25T12:12:45.877Z,22.50
2023-05-25T12:15:20.721Z,22.53
2023-05-25T12:17:48.740Z,22.55
2023-05-25T12:20:16.910Z,22.60
2023-05-25T12:22:45.134Z,22.66
2023-05-25T12:25:13.188Z,22.69
2023-05-25T12:27:40.909Z,22.72
2023-05-25T12:30:09.694Z,22.76
2023-05-25T12:33:02.595Z,22.80
2023-05-25T12:35:32.065Z,22.87
2023-05-25T12:38:12.424Z,22.94
2023-05-25T12:40:41.229Z,23.03
2023-05-25T12:43:08.778Z,23.11
2023-05-25T12:45:40.889Z,23.13
2023-05-25T12:48:08.282Z,23.18
2023-05-25T12:50:37.229Z,23.24
2023-05-25T12:53:04.941Z,23.29
2023-05-25T12:55:33.707Z,23.32
2023-05-25T12:58:03.038Z,23.37
2023-05-25T13:00:37.467Z,23.44
2023-05-25T13:03:07.765Z,23.52
2023-05-25T13:05:39.385Z,23.58
2023-05-25T13:08:07.247Z,23.58
2023-05-25T13:10:37.516Z,23.59
2023-05-25T13:13:05.001Z,23.59
2023-05-25T13:15:32.501Z,23.60
2023-05-25T13:17:59.952Z,23.62
2023-05-25T13:20:28.182Z,23.65
2023-05-25T13:22:56.025Z,23.69
2023-05-25T13:25:23.755Z,23.71
2023-05-25T13:27:51.868Z,23.75
2023-05-25T13:30:21.848Z,23.81
2023-05-25T13:32:51.452Z,23.89
2023-05-25T13:35:23.541Z,23.99
2023-05-25T13:37:51.400Z,24.06
2023-05-25T13:40:19.161Z,24.11
2023-05-25T13:42:46.787Z,24.19
2023-05-25T13:45:14.153Z,24.29
2023-05-25T13:47:44.006Z,24.40
2023-05-25T13:50:11.806Z,24.48
2023-05-25T13:52:39.182Z,24.52
2023-05-25T13:55:07.589Z,24.55
2023-05-25T13:57:53.682Z,24.61
2023-05-25T14:00:39.269Z,24.74
2023-05-25T14:03:07.127Z,24.87
2023-05-25T14:05:34.545Z,24.96
2023-05-25T14:08:04.668Z,25.04
2023-05-25T14:10:32.043Z,25.12
2023-05-25T14:12:59.496Z,25.25
2023-05-25T14:15:26.876Z,25.42
2023-05-25T14:17:57.126Z,25.56
2023-05-25T14:20:26.268Z,25.70
2023-05-25T14:22:54.153Z,25.83
2023-05-25T14:25:21.552Z,25.90
2023-05-25T14:27:48.874Z,26.00
2023-05-25T14:30:16.528Z,26.11
2023-05-25T14:32:44.041Z,26.19
2023-05-25T14:35:11.428Z,26.28
2023-05-25T14:37:38.804Z,26.36
2023-05-25T14:40:06.832Z,26.34
2023-05-25T14:42:34.794Z,26.18
2023-05-25T14:45:02.395Z,25.78
2023-05-25T14:47:29.720Z,25.43
2023-05-25T14:49:57.150Z,25.11
2023-05-25T14:52:24.557Z,24.79
2023-05-25T14:54:52.176Z,24.55
2023-05-25T14:57:19.489Z,24.32
2023-05-25T14:59:46.818Z,24.14
2023-05-25T15:02:14.245Z,23.97
2023-05-25T15:04:41.823Z,23.80
2023-05-25T15:07:11.529Z,23.61
2023-05-25T15:09:40.760Z,23.43
2023-05-25T15:12:08.210Z,23.23
2023-05-25T15:14:39.859Z,23.03
2023-05-25T15:17:07.233Z,22.80
2023-05-25T15:19:34.647Z,22.65
2023-05-25T15:22:02.025Z,22.56
2023-05-25T15:24:29.482Z,22.52
2023-05-25T15:26:56.950Z,22.51
2023-05-25T15:29:24.503Z,22.50
2023-05-25T15:31:53.116Z,22.47
2023-05-25T15:34:21.154Z,22.48
2023-05-25T15:36:48.588Z,22.53
2023-05-25T15:39:15.942Z,22.58
2023-05-25T15:41:43.331Z,22.62
2023-05-25T15:44:12.846Z,22.65
2023-05-25T15:46:41.094Z,22.71
2023-05-25T15:49:11.607Z,22.75
2023-05-25T15:51:41.720Z,22.78
2023-05-25T15:54:12.742Z,22.81
2023-05-25T15:56:41.706Z,22.83
2023-05-25T15:59:12.306Z,22.83
2023-05-25T16:01:39.887Z,22.85
2023-05-25T16:04:08.083Z,22.87
2023-05-25T16:06:36.384Z,22.88
2023-05-25T16:09:04.390Z,22.88
2023-05-25T16:11:34.127Z,22.89
2023-05-25T16:14:01.672Z,22.93
2023-05-25T16:16:29.738Z,23.03
2023-05-25T16:18:57.302Z,23.14
2023-05-25T16:21:24.916Z,23.21
2023-05-25T16:23:52.276Z,23.28
2023-05-25T16:26:19.932Z,23.34
2023-05-25T16:28:47.246Z,23.39
2023-05-25T16:31:15.813Z,23.41
2023-05-25T16:33:45.470Z,23.44
2023-05-25T16:36:14.147Z,23.45
2023-05-25T16:38:41.701Z,23.46
2023-05-25T16:41:09.208Z,23.46
2023-05-25T16:43:36.575Z,23.43
2023-05-25T16:46:03.994Z,23.41
2023-05-25T16:48:31.584Z,23.39
2023-05-25T16:50:58.941Z,23.35
2023-05-25T16:53:26.348Z,23.29
2023-05-25T16:55:53.723Z,23.27
2023-05-25T16:58:21.695Z,23.24
2023-05-25T17:00:49.056Z,23.16
2023-05-25T17:03:16.612Z,23.07
2023-05-25T17:05:44.400Z,22.99
2023-05-25T17:08:11.869Z,22.92
2023-05-25T17:10:39.236Z,22.81
2023-05-25T17:13:06.571Z,22.66
2023-05-25T17:15:33.935Z,22.48
2023-05-25T17:18:01.373Z,22.33
2023-05-25T17:20:28.814Z,22.20
2023-05-25T17:22:56.560Z,22.07
2023-05-25T17:25:27.192Z,21.95
2023-05-25T17:27:55.423Z,21.84
2023-05-25T17:30:22.753Z,21.72
2023-05-25T17:32:50.315Z,21.63
2023-05-25T17:35:17.655Z,21.54
2023-05-25T17:37:44.922Z,21.43
2023-05-25T17:40:12.920Z,21.34
2023-05-25T17:42:40.642Z,21.24
2023-05-25T17:45:11.512Z,21.14
2023-05-25T17:47:38.920Z,21.02
2023-05-25T17:50:06.863Z,20.92
2023-05-25T17:52:34.172Z,20.82
2023-05-25T17:55:01.533Z,20.73
2023-05-25T17:57:28.935Z,20.66
2023-05-25T17:59:56.199Z,20.59
2023-05-25T18:02:24.003Z,20.52
2023-05-25T18:04:51.379Z,20.46
2023-05-25T18:07:21.139Z,20.39
2023-05-25T18:09:48.540Z,20.32
2023-05-25T18:12:15.905Z,20.26
2023-05-25T18:14:43.266Z,20.18
2023-05-25T18:17:11.737Z,20.10
2023-05-25T18:19:39.380Z,20.02
2023-05-25T18:22:06.864Z,19.92
2023-05-25T18:24:34.196Z,19.74
2023-05-25T18:27:03.941Z,19.56
2023-05-25T18:29:31.745Z,19.44
2023-05-25T18:31:59.224Z,19.34
2023-05-25T18:34:26.752Z,19.23
2023-05-25T18:36:54.115Z,19.11
2023-05-25T18:39:21.514Z,18.98
2023-05-25T18:41:49.285Z,18.83
2023-05-25T18:44:16.698Z,18.69
2023-05-25T18:46:46.113Z,18.57
2023-05-25T18:49:13.869Z,18.47
2023-05-25T18:51:41.202Z,18.41
2023-05-25T18:54:09.001Z,18.37
2023-05-25T18:56:36.735Z,18.36
2023-05-25T18:59:04.130Z,18.34
2023-05-25T19:01:32.324Z,18.32
2023-05-25T19:07:02.136Z,18.30
2023-05-25T19:09:29.694Z,18.25
2023-05-25T19:11:57.430Z,18.23
2023-05-25T19:14:24.702Z,18.19
2023-05-25T19:16:52.353Z,18.14
2023-05-25T19:19:19.686Z,18.10
2023-05-25T19:21:47.090Z,18.05
2023-05-25T19:24:14.743Z,18.02
2023-05-25T19:26:42.172Z,17.97
2023-05-25T19:29:09.659Z,17.92
2023-05-25T19:31:37.058Z,17.87
2023-05-25T19:34:04.484Z,17.83
2023-05-25T19:36:32.801Z,17.78
2023-05-25T19:39:00.184Z,17.73
2023-05-25T19:41:27.913Z,17.71
2023-05-25T19:43:55.413Z,17.67
2023-05-25T19:46:22.741Z,17.64
2023-05-25T19:48:50.816Z,17.63
2023-05-25T19:51:18.215Z,17.62
2023-05-25T19:53:47.969Z,17.62
2023-05-25T19:56:15.557Z,17.62
2023-05-25T19:58:43.523Z,17.62
2023-05-25T20:01:11.374Z,17.63
2023-05-25T20:03:39.114Z,17.65
2023-05-25T20:06:06.608Z,17.67
2023-05-25T20:08:34.082Z,17.67
2023-05-25T20:11:02.368Z,17.67
2023-05-25T20:13:29.796Z,17.66
2023-05-25T20:15:57.140Z,17.65
2023-05-25T20:18:24.494Z,17.64
2023-05-25T20:20:51.828Z,17.63
2023-05-25T20:23:19.345Z,17.62
2023-05-25T20:25:46.853Z,17.60
2023-05-25T20:28:14.387Z,17.56
2023-05-25T20:30:42.034Z,17.48
2023-05-25T20:33:09.455Z,17.42
2023-05-25T20:35:37.315Z,17.39
2023-05-25T20:38:04.648Z,17.37
2023-05-25T20:40:31.951Z,17.36
2023-05-25T20:42:59.298Z,17.34
2023-05-25T20:45:26.664Z,17.33
2023-05-25T20:48:04.101Z,17.30
2023-05-25T20:50:31.627Z,17.27
2023-05-25T20:52:59.045Z,17.24
2023-05-25T20:55:26.492Z,17.18
2023-05-25T20:57:53.938Z,17.13
2023-05-25T21:00:23.620Z,17.07
2023-05-25T21:02:51.303Z,17.01
2023-05-25T21:05:18.829Z,16.94
2023-05-25T21:07:46.520Z,16.88
2023-05-25T21:10:23.053Z,16.82
2023-05-25T21:12:50.472Z,16.78
2023-05-25T21:15:17.754Z,16.75
2023-05-25T21:17:45.181Z,16.74
2023-05-25T21:20:12.721Z,16.73
2023-05-25T21:22:40.110Z,16.72
2023-05-25T21:25:08.153Z,16.69
2023-05-25T21:27:35.472Z,16.67
2023-05-25T21:30:04.426Z,16.66
2023-05-25T21:32:32.590Z,16.65
2023-05-25T21:35:00.038Z,16.65
2023-05-25T21:37:28.243Z,16.63
2023-05-25T21:39:55.826Z,16.60
2023-05-25T21:42:23.643Z,16.59
2023-05-25T21:44:51.004Z,16.58
2023-05-25T21:47:18.452Z,16.57
2023-05-25T21:49:45.928Z,16.55
2023-05-25T21:52:19.632Z,16.52
2023-05-25T21:54:47.005Z,16.49
2023-05-25T21:57:14.478Z,16.46
2023-05-25T21:59:41.731Z,16.43
2023-05-25T22:02:09.318Z,16.41
2023-05-25T22:04:36.795Z,16.40
2023-05-25T22:07:22.412Z,16.37
2023-05-25T22:09:49.723Z,16.32
2023-05-25T22:12:17.117Z,16.28
2023-05-25T22:14:44.449Z,16.23
2023-05-25T22:17:11.918Z,16.19
2023-05-25T22:19:39.241Z,16.14
2023-05-25T22:22:07.055Z,16.11
2023-05-25T22:24:43.431Z,16.09
2023-05-25T22:27:11.057Z,16.08
2023-05-25T22:29:38.517Z,16.08
2023-05-25T22:32:05.884Z,16.08
2023-05-25T22:34:33.212Z,16.06
2023-05-25T22:37:00.549Z,16.04
2023-05-25T22:39:27.862Z,16.02
2023-05-25T22:41:55.246Z,15.98
2023-05-25T22:44:22.585Z,15.94
2023-05-25T22:46:51.074Z,15.90
2023-05-25T22:49:18.499Z,15.86
2023-05-25T22:51:45.959Z,15.83
2023-05-25T22:54:13.507Z,15.82
2023-05-25T22:56:41.130Z,15.78
2023-05-25T22:59:08.512Z,15.73
2023-05-25T23:01:35.864Z,15.70
2023-05-25T23:04:03.599Z,15.68
2023-05-25T23:06:31.235Z,15.65
2023-05-25T23:08:58.589Z,15.63
2023-05-25T23:11:27.134Z,15.61
2023-05-25T23:13:54.839Z,15.60
2023-05-25T23:16:22.646Z,15.60
2023-05-25T23:18:51.788Z,15.59
2023-05-25T23:21:19.115Z,15.58
2023-05-25T23:23:46.402Z,15.58
2023-05-25T23:26:13.743Z,15.58
2023-05-25T23:28:41.352Z,15.60
2023-05-25T23:31:08.664Z,15.60
2023-05-25T23:33:36.162Z,15.59
2023-05-25T23:36:03.640Z,15.57
2023-05-25T23:38:31.283Z,15.54
2023-05-25T23:40:58.592Z,15.52
2023-05-25T23:43:26.283Z,15.49
2023-05-25T23:45:53.598Z,15.46
2023-05-25T23:48:21.081Z,15.43
2023-05-25T23:50:48.768Z,15.37
2023-05-25T23:53:16.061Z,15.29
2023-05-25T23:55:43.703Z,15.20
2023-05-25T23:58:11.180Z,15.10
